Time;durP1;ratioP1;P1;durP2;ratioP2;P2;SDS_P1;SDS_P2;PMS_P1;PMS_P2;Temp;Humidity;BMP_temperature;BMP_pressure;BME280_temperature;BME280_humidity;BME280_pressure;Samples;Min_cycle;Max_cycle;Signal;HPM_P1;HPM_P2
2023/01/19 00:00:14;;;;;;;22.88;13.00;;;;;;;-2.86;100.00;99267.63;5057191;28;20243;-74
2023/01/19 00:02:42;;;;;;;19.33;12.68;;;;;;;-2.94;100.00;99258.91;5057225;28;20180;-74
2023/01/19 00:05:12;;;;;;;21.77;12.98;;;;;;;-2.72;100.00;99267.47;5069845;28;20187;-74
2023/01/19 00:07:39;;;;;;;24.00;12.68;;;;;;;-2.75;100.00;99270.16;5076692;28;20215;-74
2023/01/19 00:10:07;;;;;;;22.05;12.48;;;;;;;-2.75;100.00;99272.78;5077048;28;20196;-72
2023/01/19 00:12:33;;;;;;;21.13;12.48;;;;;;;-2.77;100.00;99269.31;5075783;28;20180;-74
2023/01/19 00:15:00;;;;;;;20.08;12.98;;;;;;;-2.79;100.00;99271.94;5074760;28;20222;-75
2023/01/19 00:17:27;;;;;;;20.35;13.10;;;;;;;-2.68;100.00;99276.25;5067302;28;20207;-75
2023/01/19 00:19:55;;;;;;;22.88;12.30;;;;;;;-2.68;100.00;99268.34;5063552;28;20289;-77
2023/01/19 00:22:21;;;;;;;16.75;11.20;;;;;;;-2.56;100.00;99271.72;5063068;28;20207;-76
2023/01/19 00:24:48;;;;;;;22.08;12.63;;;;;;;-2.58;100.00;99275.25;5064860;28;20234;-77
2023/01/19 00:27:14;;;;;;;19.20;12.27;;;;;;;-2.54;100.00;99276.97;5065187;28;20290;-76
2023/01/19 00:29:41;;;;;;;24.75;13.75;;;;;;;-2.49;100.00;99275.16;5064813;28;20746;-75
2023/01/19 00:32:07;;;;;;;21.05;12.65;;;;;;;-2.53;100.00;99279.59;5064623;28;20204;-76
2023/01/19 00:34:38;;;;;;;17.10;11.43;;;;;;;-2.64;100.00;99278.84;5063824;28;20255;-75
2023/01/19 00:37:06;;;;;;;17.05;11.82;;;;;;;-2.63;100.00;99279.69;5068352;28;20208;-76
2023/01/19 00:39:37;;;;;;;22.55;10.88;;;;;;;-2.56;100.00;99286.66;5053712;28;20289;-76
2023/01/19 00:44:48;;;;;;;15.30;11.88;;;;;;;-2.40;100.00;99290.88;5058155;28;20221;-76
2023/01/19 00:47:15;;;;;;;17.17;10.98;;;;;;;-2.31;100.00;99295.19;5055989;28;20264;-74
2023/01/19 00:49:41;;;;;;;16.27;11.18;;;;;;;-2.12;100.00;99293.22;5056967;28;20201;-75
2023/01/19 00:52:11;;;;;;;18.42;11.07;;;;;;;-2.11;100.00;99287.91;5076712;28;20214;-74
2023/01/19 00:54:37;;;;;;;18.75;11.77;;;;;;;-2.01;100.00;99295.72;5077188;28;20252;-75
2023/01/19 00:57:04;;;;;;;16.38;10.23;;;;;;;-1.93;100.00;99294.72;5076000;28;20725;-75
2023/01/19 00:59:30;;;;;;;23.83;11.57;;;;;;;-1.91;100.00;99295.59;5074812;28;20266;-74
2023/01/19 01:01:57;;;;;;;16.90;12.27;;;;;;;-1.90;100.00;99292.06;5076289;28;20252;-74
2023/01/19 01:04:23;;;;;;;23.25;12.40;;;;;;;-1.94;100.00;99298.28;5075912;28;20287;-73
2023/01/19 01:06:50;;;;;;;16.38;10.25;;;;;;;-1.90;100.00;99294.72;5077799;28;20234;-73
2023/01/19 01:09:18;;;;;;;17.05;11.50;;;;;;;-1.89;100.00;99307.00;5076680;28;20200;-74
2023/01/19 01:11:47;;;;;;;19.92;11.40;;;;;;;-1.81;100.00;99306.94;5076735;28;20218;-73
2023/01/19 01:14:13;;;;;;;16.80;10.65;;;;;;;-1.73;100.00;99306.81;5077765;28;20215;-76
2023/01/19 01:16:40;;;;;;;17.98;10.95;;;;;;;-1.79;100.00;99307.75;5075983;28;20227;-76
2023/01/19 01:19:07;;;;;;;17.15;10.73;;;;;;;-1.83;100.00;99307.81;5074703;28;20234;-74
2023/01/19 01:21:34;;;;;;;19.70;11.73;;;;;;;-1.81;100.00;99313.94;5075298;28;20264;-75
2023/01/19 01:24:01;;;;;;;20.55;13.20;;;;;;;-1.91;100.00;99319.34;5075347;28;20261;-74
2023/01/19 01:26:29;;;;;;;20.10;12.25;;;;;;;-2.01;100.00;99316.81;5076349;28;20230;-74
2023/01/19 01:28:56;;;;;;;21.33;12.20;;;;;;;-2.10;100.00;99320.47;5076005;28;20193;-73
2023/01/19 01:31:22;;;;;;;18.08;10.63;;;;;;;-2.06;100.00;99327.44;5076087;28;20264;-73
2023/01/19 01:33:49;;;;;;;18.63;11.93;;;;;;;-2.14;100.00;99327.53;5077157;28;20322;-74
2023/01/19 01:36:17;;;;;;;19.50;11.80;;;;;;;-2.19;100.00;99326.72;5076566;28;20231;-73
2023/01/19 01:38:44;;;;;;;14.25;10.70;;;;;;;-2.12;100.00;99328.38;5074435;28;20272;-74
2023/01/19 01:41:11;;;;;;;19.45;12.45;;;;;;;-2.13;100.00;99333.66;5073165;28;20201;-76
2023/01/19 01:43:47;;;;;;;18.00;12.65;;;;;;;-2.08;100.00;99326.59;5069311;28;20224;-74
2023/01/19 01:46:15;;;;;;;23.92;13.23;;;;;;;-2.05;100.00;99334.47;5046629;28;20266;-74
2023/01/19 01:48:46;;;;;;;17.42;11.57;;;;;;;-1.98;100.00;99330.88;5046550;28;20208;-75
2023/01/19 01:51:28;;;;;;;17.48;12.30;;;;;;;-1.99;100.00;99331.78;5048142;28;20205;-76
2023/01/19 01:54:02;;;;;;;17.90;11.93;;;;;;;-2.01;100.00;99328.28;5046351;28;20287;-74
2023/01/19 01:56:34;;;;;;;15.43;10.75;;;;;;;-2.06;100.00;99324.78;5044236;28;20624;-76
2023/01/19 01:59:06;;;;;;;19.73;11.85;;;;;;;-2.04;100.00;99333.56;5049807;28;20228;-76
2023/01/19 02:04:13;;;;;;;16.73;10.43;;;;;;;-2.03;100.00;99330.06;5016221;28;20222;-76
2023/01/19 02:14:57;;;;;;;19.77;11.57;;;;;;;-2.03;100.00;99322.13;5017121;28;20300;-76
2023/01/19 02:17:24;;;;;;;19.73;11.90;;;;;;;-1.99;100.00;99330.88;5017501;28;20236;-74
2023/01/19 02:19:51;;;;;;;17.75;12.38;;;;;;;-2.08;100.00;99321.31;5016094;28;20226;-75
2023/01/19 02:22:24;;;;;;;21.00;12.63;;;;;;;-2.01;100.00;99328.28;5016014;28;20212;-75
2023/01/19 02:24:52;;;;;;;21.27;11.73;;;;;;;-1.98;100.00;99330.88;5015055;28;20678;-75
2023/01/19 02:27:19;;;;;;;14.65;9.40;;;;;;;-1.92;100.00;99330.81;5013650;28;20213;-77
2023/01/19 02:29:46;;;;;;;17.10;11.45;;;;;;;-1.86;100.00;99331.63;5014983;28;20210;-76
2023/01/19 02:32:14;;;;;;;18.52;10.70;;;;;;;-1.82;100.00;99330.69;5016086;28;20282;-77
2023/01/19 02:34:40;;;;;;;16.38;11.65;;;;;;;-1.72;100.00;99335.84;5019463;28;20305;-76
2023/01/19 02:37:11;;;;;;;18.50;12.43;;;;;;;-1.60;100.00;99341.84;5029499;28;20203;-76
2023/01/19 02:39:44;;;;;;;21.67;12.55;;;;;;;-1.61;100.00;99335.69;5030280;28;20237;-76
2023/01/19 02:42:17;;;;;;;17.83;12.68;;;;;;;-1.51;100.00;99342.59;5060649;28;20212;-74
2023/01/19 02:44:48;;;;;;;19.98;11.98;;;;;;;-1.50;100.00;99338.19;5063954;28;20247;-76
2023/01/19 02:47:14;;;;;;;18.20;12.13;;;;;;;-1.49;100.00;99338.19;5060213;28;20646;-76
2023/01/19 02:49:41;;;;;;;18.75;12.35;;;;;;;-1.49;100.00;99337.31;5059465;28;20791;-75
2023/01/19 02:52:15;;;;;;;18.70;12.40;;;;;;;-1.57;100.00;99340.03;5061977;28;20212;-74
2023/01/19 02:54:50;;;;;;;22.60;12.75;;;;;;;-1.66;100.00;99332.22;5050840;28;20227;-76
2023/01/19 02:57:39;;;;;;;20.45;11.65;;;;;;;-1.76;100.00;99322.69;5067624;28;20202;-75
2023/01/19 03:00:18;;;;;;;22.25;13.00;;;;;;;-1.74;100.00;99336.72;5069643;28;20278;-74
2023/01/19 03:02:57;;;;;;;20.67;12.05;;;;;;;-1.80;100.00;99329.78;5068463;28;20668;-76
2023/01/19 03:05:35;;;;;;;23.45;12.35;;;;;;;-1.87;100.00;99316.69;5068777;28;20256;-74
2023/01/19 03:08:13;;;;;;;19.15;12.68;;;;;;;-1.76;100.00;99317.44;5070231;28;20195;-74
2023/01/19 03:10:47;;;;;;;19.50;13.77;;;;;;;-1.79;100.00;99320.94;5067580;28;20199;-73
2023/01/19 03:13:21;;;;;;;19.33;11.73;;;;;;;-1.76;100.00;99318.28;5062370;28;20287;-75
2023/01/19 03:15:50;;;;;;;17.40;11.40;;;;;;;-1.74;100.00;99318.25;5060948;28;20232;-75
2023/01/19 03:18:20;;;;;;;23.98;12.77;;;;;;;-1.79;100.00;99315.66;5060416;28;20260;-74
2023/01/19 03:20:52;;;;;;;15.48;11.32;;;;;;;-1.84;100.00;99312.22;5060510;28;20220;-75
2023/01/19 03:23:21;;;;;;;17.77;11.85;;;;;;;-1.91;100.00;99311.41;5058650;28;20681;-76
2023/01/19 03:25:51;;;;;;;18.73;12.57;;;;;;;-1.81;100.00;99308.66;5058893;28;20637;-75
2023/01/19 03:28:23;;;;;;;21.42;13.25;;;;;;;-1.94;100.00;99314.13;5057980;28;20219;-76
2023/01/19 03:30:56;;;;;;;20.95;11.90;;;;;;;-1.96;100.00;99310.63;5057643;28;20533;-77
2023/01/19 03:33:26;;;;;;;18.50;11.30;;;;;;;-1.93;100.00;99320.25;5056476;28;20225;-76
2023/01/19 03:35:57;;;;;;;16.80;11.93;;;;;;;-1.96;100.00;99313.25;5057001;28;20199;-75
2023/01/19 03:38:26;;;;;;;21.30;13.82;;;;;;;-1.97;100.00;99319.44;5057129;28;20195;-75
2023/01/19 03:40:56;;;;;;;22.75;13.40;;;;;;;-2.11;100.00;99323.97;5060865;28;20249;-75
2023/01/19 03:43:25;;;;;;;22.80;12.90;;;;;;;-2.07;100.00;99325.69;5062600;28;20251;-74
2023/01/19 03:45:53;;;;;;;19.42;13.85;;;;;;;-2.10;100.00;99323.97;5058810;28;20200;-75
2023/01/19 03:48:20;;;;;;;19.73;13.20;;;;;;;-2.13;100.00;99316.06;5057541;28;20207;-77
2023/01/19 03:50:47;;;;;;;23.23;13.18;;;;;;;-2.12;100.00;99311.69;5058837;28;20301;-76
2023/01/19 03:53:16;;;;;;;20.63;12.73;;;;;;;-2.24;100.00;99315.31;5059494;28;20242;-76
2023/01/19 03:55:46;;;;;;;17.40;12.63;;;;;;;-2.16;100.00;99324.03;5070901;28;20216;-76
2023/01/19 03:58:13;;;;;;;21.55;14.00;;;;;;;-2.12;100.00;99331.03;5065747;28;20200;-75
2023/01/19 04:00:41;;;;;;;19.20;12.88;;;;;;;-2.04;100.00;99327.44;5066292;28;20219;-74
2023/01/19 04:03:13;;;;;;;20.23;13.20;;;;;;;-1.99;100.00;99315.03;5075722;28;20255;-75
2023/01/19 04:05:40;;;;;;;20.75;13.48;;;;;;;-1.91;100.00;99319.34;5064079;28;20212;-76
2023/01/19 04:08:07;;;;;;;20.83;12.85;;;;;;;-1.89;100.00;99322.84;5061473;28;20208;-76
2023/01/19 04:10:34;;;;;;;24.17;14.00;;;;;;;-1.80;100.00;99332.41;5046290;28;20215;-76
2023/01/19 04:13:02;;;;;;;23.73;15.18;;;;;;;-1.80;100.00;99326.25;5063677;28;20218;-76
2023/01/19 04:15:29;;;;;;;21.85;13.80;;;;;;;-1.66;100.00;99334.88;5065307;28;20212;-75
2023/01/19 04:17:58;;;;;;;21.42;13.43;;;;;;;-1.60;100.00;99324.25;5063279;28;20217;-75
2023/01/19 04:20:26;;;;;;;29.35;14.65;;;;;;;-1.63;100.00;99328.69;5061522;28;20243;-75
2023/01/19 04:22:52;;;;;;;21.63;13.20;;;;;;;-1.54;100.00;99325.91;5061377;28;20245;-76
2023/01/19 04:25:19;;;;;;;25.73;13.95;;;;;;;-1.56;100.00;99323.31;5062049;28;20268;-75
2023/01/19 04:27:45;;;;;;;19.83;13.55;;;;;;;-1.51;100.00;99321.47;5060151;28;20218;-76
2023/01/19 04:30:13;;;;;;;26.27;15.40;;;;;;;-1.43;100.00;99320.50;5059174;28;20648;-75
2023/01/19 04:32:39;;;;;;;21.23;14.10;;;;;;;-1.33;100.00;99324.78;5059640;28;20207;-75
2023/01/19 04:35:08;;;;;;;20.83;13.90;;;;;;;-1.29;100.00;99327.34;5059571;28;20295;-75
2023/01/19 04:37:34;;;;;;;21.70;13.10;;;;;;;-1.23;100.00;99322.84;5059168;28;20243;-76
2023/01/19 04:40:01;;;;;;;26.88;14.95;;;;;;;-1.26;100.00;99327.28;5058240;28;20708;-75
2023/01/19 04:42:30;;;;;;;25.10;13.75;;;;;;;-1.24;100.00;99337.84;5049392;28;20204;-74
2023/01/19 04:44:56;;;;;;;23.67;15.15;;;;;;;-1.19;100.00;99330.72;5061567;28;20219;-76
2023/01/19 04:47:23;;;;;;;22.70;15.15;;;;;;;-1.17;100.00;99330.69;5061684;28;20204;-76
2023/01/19 04:49:50;;;;;;;20.88;14.38;;;;;;;-1.07;100.00;99341.09;5061803;28;20201;-76
2023/01/19 04:52:17;;;;;;;21.88;14.35;;;;;;;-1.13;100.00;99340.28;5062465;28;20247;-75
2023/01/19 04:54:44;;;;;;;23.30;15.00;;;;;;;-1.01;100.00;99344.56;5060750;28;20258;-74
2023/01/19 04:57:11;;;;;;;23.67;14.63;;;;;;;-1.03;100.00;99339.28;5060329;28;20263;-74
2023/01/19 04:59:37;;;;;;;26.45;15.35;;;;;;;-0.92;100.00;99344.41;5059637;28;20321;-76
2023/01/19 05:02:04;;;;;;;27.58;14.05;;;;;;;-0.89;100.00;99337.28;5060732;28;20245;-74
2023/01/19 05:04:30;;;;;;;22.83;14.07;;;;;;;-0.89;100.00;99339.06;5059125;28;20226;-76
2023/01/19 05:06:57;;;;;;;28.48;14.73;;;;;;;-0.87;100.00;99343.41;5059804;28;20267;-77
2023/01/19 05:09:25;;;;;;;24.13;14.82;;;;;;;-0.84;100.00;99342.50;5059403;28;20200;-75
2023/01/19 05:11:52;;;;;;;20.45;14.00;;;;;;;-0.83;100.00;99344.25;5059831;28;20195;-76
2023/01/19 05:14:19;;;;;;;24.75;15.90;;;;;;;-0.72;100.00;99339.66;5066700;28;20220;-75
2023/01/19 05:16:45;;;;;;;25.45;15.18;;;;;;;-0.69;100.00;99338.75;5066555;28;20211;-75
2023/01/19 05:19:12;;;;;;;24.73;14.88;;;;;;;-0.68;100.00;99344.00;5061625;28;20291;-76
2023/01/19 05:21:39;;;;;;;28.05;16.48;;;;;;;-0.66;100.00;99352.78;5057773;28;20696;-76
2023/01/19 05:24:06;;;;;;;22.73;13.98;;;;;;;-0.69;100.00;99352.81;5076256;23;20226;-74
2023/01/19 05:26:34;;;;;;;25.35;14.50;;;;;;;-0.69;100.00;99341.38;5078502;28;20659;-74
2023/01/19 05:29:01;;;;;;;28.35;15.43;;;;;;;-0.60;100.00;99341.22;5062407;28;20200;-75
2023/01/19 05:31:27;;;;;;;19.20;13.65;;;;;;;-0.61;100.00;99341.25;5074665;28;20267;-75
2023/01/19 05:33:54;;;;;;;25.95;16.50;;;;;;;-0.62;100.00;99353.59;5074849;28;20282;-76
2023/01/19 05:36:20;;;;;;;27.10;15.90;;;;;;;-0.60;100.00;99356.22;5056820;28;20597;-74
2023/01/19 05:38:47;;;;;;;23.33;15.85;;;;;;;-0.58;100.00;99357.06;5057635;28;20199;-75
2023/01/19 05:41:14;;;;;;;26.80;15.50;;;;;;;-0.48;100.00;99353.38;5057622;28;20235;-75
2023/01/19 05:43:41;;;;;;;28.05;15.80;;;;;;;-0.42;100.00;99361.19;5057482;28;20283;-75
2023/01/19 05:46:08;;;;;;;27.60;16.55;;;;;;;-0.35;100.00;99354.91;5057435;28;20207;-74
2023/01/19 05:48:35;;;;;;;30.77;17.00;;;;;;;-0.36;100.00;99360.19;5055887;28;20206;-75
2023/01/19 05:51:01;;;;;;;24.83;15.90;;;;;;;-0.34;100.00;99369.88;5057071;28;20205;-74
2023/01/19 05:53:28;;;;;;;24.33;15.60;;;;;;;-0.29;100.00;99362.72;5056568;28;20210;-74
2023/01/19 05:56:00;;;;;;;22.70;14.63;;;;;;;-0.14;100.00;99373.94;5057503;28;20285;-75
2023/01/19 05:58:27;;;;;;;25.38;15.00;;;;;;;-0.15;100.00;99365.13;5057782;28;20201;-75
2023/01/19 06:00:55;;;;;;;26.40;15.65;;;;;;;-0.19;100.00;99362.56;5058611;28;20228;-75
2023/01/19 06:03:22;;;;;;;20.95;14.77;;;;;;;-0.14;100.00;99371.28;5056826;28;20212;-76
2023/01/19 06:05:48;;;;;;;24.13;15.07;;;;;;;-0.13;100.00;99367.75;5056969;28;20342;-74
2023/01/19 06:08:15;;;;;;;23.70;15.50;;;;;;;-0.11;100.00;99369.47;5056019;28;20205;-76
2023/01/19 06:10:41;;;;;;;23.50;13.57;;;;;;;-0.11;100.00;99372.13;5057469;28;20251;-75
2023/01/19 06:13:08;;;;;;;25.27;14.93;;;;;;;0.03;100.00;99369.22;5058355;28;20208;-75
2023/01/19 06:15:36;;;;;;;24.20;14.65;;;;;;;0.04;100.00;99372.72;5058663;28;20202;-75
2023/01/19 06:18:04;;;;;;;21.45;13.45;;;;;;;0.08;100.00;99372.63;5060526;28;20204;-74
2023/01/19 06:20:30;;;;;;;22.67;13.77;;;;;;;0.07;100.00;99370.91;5069927;28;20224;-75
2023/01/19 06:22:57;;;;;;;18.20;11.13;;;;;;;0.08;100.00;99379.72;5068189;28;20211;-74
2023/01/19 06:25:24;;;;;;;20.98;14.38;;;;;;;0.08;100.00;99388.50;5062461;28;20307;-77
2023/01/19 06:27:51;;;;;;;20.98;13.05;;;;;;;0.07;100.00;99399.13;5057982;28;20272;-77
2023/01/19 06:30:18;;;;;;;23.20;12.65;;;;;;;0.12;100.00;99387.56;5058925;28;20195;-77
2023/01/19 06:32:45;;;;;;;18.08;12.18;;;;;;;0.15;100.00;99390.13;5058772;28;20203;-74
2023/01/19 06:35:13;;;;;;;19.95;12.85;;;;;;;0.25;100.00;99390.84;5058329;28;20223;-76
2023/01/19 06:37:40;;;;;;;21.50;12.95;;;;;;;0.23;100.00;99386.47;5058788;28;20282;-76
2023/01/19 06:40:08;;;;;;;23.52;13.50;;;;;;;0.17;100.00;99384.81;5058085;28;20212;-76
2023/01/19 06:42:35;;;;;;;18.17;12.05;;;;;;;0.23;100.00;99387.38;5058360;28;20203;-76
2023/01/19 06:45:01;;;;;;;21.65;13.15;;;;;;;0.22;100.00;99390.03;5057919;28;20307;-75
2023/01/19 06:47:28;;;;;;;22.77;14.20;;;;;;;0.18;100.00;99387.44;5069317;28;20299;-75
2023/01/19 06:49:55;;;;;;;17.77;13.18;;;;;;;0.24;100.00;99389.09;5071511;28;20211;-75
2023/01/19 06:52:23;;;;;;;18.85;13.02;;;;;;;0.17;100.00;99392.75;5074643;28;20203;-75
2023/01/19 06:54:49;;;;;;;26.23;14.30;;;;;;;0.12;100.00;99392.84;5072548;28;20282;-75
2023/01/19 06:57:16;;;;;;;21.73;12.13;;;;;;;0.03;100.00;99403.63;5063325;28;20210;-76
2023/01/19 06:59:42;;;;;;;19.25;12.10;;;;;;;-0.02;100.00;99397.53;5064135;28;20203;-76
2023/01/19 07:02:10;;;;;;;19.30;13.27;;;;;;;0.04;100.00;99393.91;5063452;28;20235;-76
2023/01/19 07:04:37;;;;;;;21.77;12.32;;;;;;;0.04;100.00;99401.84;5062592;28;20228;-77
2023/01/19 07:07:03;;;;;;;19.58;12.38;;;;;;;0.05;100.00;99404.47;5067758;28;20204;-76
2023/01/19 07:09:31;;;;;;;23.50;12.63;;;;;;;0.02;100.00;99390.41;5064457;28;20290;-76
2023/01/19 07:11:58;;;;;;;21.52;13.38;;;;;;;-0.04;100.00;99391.41;5063991;28;20205;-76
2023/01/19 07:14:29;;;;;;;24.08;13.63;;;;;;;-0.03;100.00;99395.78;5061869;28;20224;-76
2023/01/19 07:16:56;;;;;;;20.17;11.50;;;;;;;-0.12;100.00;99407.41;5061140;28;20242;-76
2023/01/19 07:19:23;;;;;;;24.63;13.40;;;;;;;-0.13;100.00;99404.81;5058752;28;20198;-77
2023/01/19 07:21:49;;;;;;;22.00;13.82;;;;;;;-0.21;100.00;99408.44;5059269;28;20251;-75
2023/01/19 07:24:16;;;;;;;24.05;14.02;;;;;;;-0.28;100.00;99398.88;5057586;28;20239;-76
2023/01/19 07:26:44;;;;;;;23.15;14.85;;;;;;;-0.30;100.00;99397.16;5057943;28;20303;-74
2023/01/19 07:29:10;;;;;;;24.02;13.40;;;;;;;-0.30;100.00;99397.16;5056230;28;20283;-77
2023/01/19 07:31:37;;;;;;;21.05;14.15;;;;;;;-0.34;100.00;99406.03;5058806;28;20696;-76
2023/01/19 07:34:05;;;;;;;19.85;13.30;;;;;;;-0.37;100.00;99401.66;5057685;28;20282;-75
2023/01/19 07:36:32;;;;;;;23.45;12.77;;;;;;;-0.39;100.00;99408.75;5058348;28;20203;-75
2023/01/19 07:38:59;;;;;;;24.80;14.63;;;;;;;-0.38;100.00;99410.53;5057852;28;20274;-75
2023/01/19 07:41:25;;;;;;;23.23;15.05;;;;;;;-0.31;100.00;99416.59;5057842;28;20282;-76
2023/01/19 07:43:53;;;;;;;24.77;13.75;;;;;;;-0.28;100.00;99420.03;5069653;28;20284;-75
2023/01/19 07:46:20;;;;;;;23.63;13.00;;;;;;;-0.30;100.00;99421.81;5069778;28;20231;-75
2023/01/19 07:48:46;;;;;;;17.92;10.85;;;;;;;-0.22;100.00;99432.31;5067144;28;20568;-74
2023/01/19 07:51:17;;;;;;;20.33;14.10;;;;;;;-0.18;100.00;99426.06;5064146;28;20211;-74
2023/01/19 07:53:44;;;;;;;23.83;14.18;;;;;;;-0.14;100.00;99424.22;5062753;28;20741;-74
2023/01/19 07:56:12;;;;;;;21.15;13.57;;;;;;;0.11;100.00;99414.06;5062731;28;20200;-74
2023/01/19 07:58:38;;;;;;;24.70;14.48;;;;;;;0.03;100.00;99418.63;5065292;28;20678;-75
2023/01/19 08:01:08;;;;;;;21.60;15.68;;;;;;;-0.02;100.00;99424.88;5066868;28;20698;-78
2023/01/19 08:03:34;;;;;;;25.20;14.60;;;;;;;-0.03;100.00;99417.81;5068197;28;20289;-74
2023/01/19 08:06:01;;;;;;;26.10;14.82;;;;;;;0.35;100.00;99423.31;5067882;28;20205;-73
2023/01/19 08:08:29;;;;;;;20.13;13.55;;;;;;;0.92;100.00;99423.00;5069918;28;20202;-74
2023/01/19 08:10:55;;;;;;;20.75;14.50;;;;;;;0.99;100.00;99419.31;5085080;28;20230;-75
2023/01/19 08:13:22;;;;;;;22.08;14.35;;;;;;;1.05;100.00;99410.38;5090586;28;20241;-75
2023/01/19 08:15:49;;;;;;;22.13;13.40;;;;;;;0.79;100.00;99426.81;5091942;28;20260;-75
2023/01/19 08:18:18;;;;;;;18.38;12.65;;;;;;;0.99;100.00;99418.44;5091948;28;20204;-74
2023/01/19 08:20:45;;;;;;;23.38;12.60;;;;;;;1.45;100.00;99420.94;5093313;28;20227;-74
2023/01/19 08:23:11;;;;;;;21.55;13.50;;;;;;;2.09;100.00;99420.22;5091603;28;20254;-75
2023/01/19 08:25:40;;;;;;;19.58;12.77;;;;;;;2.55;100.00;99420.75;5090132;28;20278;-75
2023/01/19 08:28:09;;;;;;;17.92;12.50;;;;;;;2.76;100.00;99429.88;5091114;28;20285;-75
2023/01/19 08:30:35;;;;;;;17.70;12.82;;;;;;;2.90;100.00;99420.59;5092738;28;20218;-74
2023/01/19 08:33:06;;;;;;;17.77;13.35;;;;;;;3.25;100.00;99423.09;5093120;28;20285;-74
2023/01/19 08:35:35;;;;;;;27.73;13.15;;;;;;;3.52;100.00;99422.22;5092600;28;20237;-75
2023/01/19 08:38:02;;;;;;;19.75;12.00;;;;;;;3.63;100.00;99413.88;5078259;28;20206;-76
2023/01/19 08:40:32;;;;;;;15.30;10.75;;;;;;;3.67;100.00;99425.31;5078654;28;20196;-75
2023/01/19 08:43:03;;;;;;;19.85;12.80;;;;;;;3.55;100.00;99411.50;5080210;28;20571;-75
2023/01/19 08:45:30;;;;;;;14.43;11.43;;;;;;;3.66;100.00;99415.56;5080848;28;20262;-76
2023/01/19 08:47:58;;;;;;;17.92;11.70;;;;;;;3.68;100.00;99421.72;5079855;28;20252;-74
2023/01/19 08:50:24;;;;;;;15.85;12.40;;;;;;;4.18;100.00;99406.72;5080075;28;20286;-75
2023/01/19 08:52:52;;;;;;;16.40;11.85;;;;;;;4.14;100.00;99421.06;5080126;28;20203;-75
2023/01/19 08:55:19;;;;;;;18.30;14.35;;;;;;;4.08;100.00;99415.06;5080590;28;20226;-76
2023/01/19 08:57:45;;;;;;;17.67;12.50;;;;;;;4.44;100.00;99417.38;5079946;28;20221;-74
2023/01/19 09:00:13;;;;;;;18.25;13.25;;;;;;;3.94;100.00;99436.84;5079983;28;20203;-77
2023/01/19 09:02:40;;;;;;;18.50;14.35;;;;;;;4.32;100.00;99437.31;5080397;28;20579;-74
2023/01/19 09:05:07;;;;;;;22.92;12.73;;;;;;;4.73;100.00;99437.63;5080742;28;20220;-76
2023/01/19 09:07:34;;;;;;;17.67;12.52;;;;;;;4.76;100.00;99435.72;5078713;28;20306;-78
2023/01/19 09:10:02;;;;;;;21.45;12.63;;;;;;;4.95;100.00;99445.69;5079801;28;20203;-74
2023/01/19 09:12:29;;;;;;;15.50;12.32;;;;;;;5.08;100.00;99446.97;5081456;28;20305;-76
2023/01/19 09:14:55;;;;;;;16.10;12.00;;;;;;;4.84;100.00;99443.44;5079907;28;20250;-75
2023/01/19 09:17:22;;;;;;;15.63;11.43;;;;;;;5.03;100.00;99448.94;5078594;28;20294;-74
2023/01/19 09:19:49;;;;;;;16.85;11.70;;;;;;;4.68;100.00;99450.25;5078781;28;20550;-75
2023/01/19 09:22:15;;;;;;;14.75;10.60;;;;;;;5.16;100.00;99452.03;5079171;28;20250;-76
2023/01/19 09:24:42;;;;;;;16.08;12.23;;;;;;;5.08;100.00;99452.31;5079138;28;20226;-74
2023/01/19 09:27:10;;;;;;;14.65;11.40;;;;;;;5.19;100.00;99473.25;5061206;28;20205;-75
2023/01/19 09:29:36;;;;;;;18.20;12.57;;;;;;;5.00;100.00;99455.28;5079255;28;20554;-75
2023/01/19 09:32:03;;;;;;;19.52;13.73;;;;;;;5.13;100.00;99457.47;5078631;28;20195;-75
2023/01/19 09:34:30;;;;;;;18.48;13.23;;;;;;;5.06;100.00;99455.97;5078502;28;20227;-77
2023/01/19 09:36:57;;;;;;;17.42;11.50;;;;;;;4.96;100.00;99450.13;5060361;28;20673;-76
2023/01/19 09:39:23;;;;;;;17.67;11.98;;;;;;;5.37;100.00;99458.34;5078442;28;20678;-76
2023/01/19 09:42:00;;;;;;;19.73;13.52;;;;;;;5.75;100.00;99456.81;5078813;28;20226;-76
2023/01/19 09:44:32;;;;;;;15.13;10.90;;;;;;;5.87;100.00;99466.13;5079461;28;20658;-74
2023/01/19 09:47:00;;;;;;;16.95;12.52;;;;;;;6.03;100.00;99456.56;5087602;28;20187;-76
2023/01/19 09:49:31;;;;;;;15.07;11.10;;;;;;;6.09;100.00;99457.25;5087321;28;20257;-75
2023/01/19 09:51:58;;;;;;;12.80;10.38;;;;;;;5.94;100.00;99459.63;5089871;28;20202;-75
2023/01/19 09:54:32;;;;;;;17.08;11.95;;;;;;;5.94;100.00;99462.28;5097938;28;20257;-75
2023/01/19 09:57:00;;;;;;;14.35;10.73;;;;;;;5.01;100.00;99458.81;5098514;28;20194;-75
2023/01/19 09:59:37;;;;;;;16.90;12.45;;;;;;;5.16;100.00;99462.72;5095712;28;20216;-75
2023/01/19 10:02:18;;;;;;;14.73;9.65;;;;;;;4.32;100.00;99461.28;5091639;28;20221;-75
2023/01/19 10:04:56;;;;;;;17.52;11.05;;;;;;;3.94;100.00;99455.50;5088320;28;20253;-76
2023/01/19 10:07:39;;;;;;;14.15;10.07;;;;;;;3.73;100.00;99457.06;5087206;28;20248;-76
2023/01/19 10:10:16;;;;;;;15.23;9.95;;;;;;;3.53;100.00;99466.56;5086344;28;20201;-74
2023/01/19 10:12:52;;;;;;;17.60;10.75;;;;;;;3.47;100.00;99461.44;5085427;28;20208;-74
2023/01/19 10:15:30;;;;;;;16.02;10.80;;;;;;;3.51;100.00;99464.88;5085721;28;20231;-74
2023/01/19 10:18:11;;;;;;;17.10;12.25;;;;;;;3.19;100.00;99469.41;5085036;28;20199;-74
2023/01/19 10:20:40;;;;;;;17.67;10.93;;;;;;;3.05;100.00;99452.97;5083757;28;20189;-75
2023/01/19 10:23:21;;;;;;;14.88;10.20;;;;;;;3.16;100.00;99452.66;5078521;28;20227;-74
2023/01/19 10:25:48;;;;;;;14.23;9.93;;;;;;;3.12;100.00;99451.84;5083160;28;20217;-76
2023/01/19 10:28:19;;;;;;;18.88;10.48;;;;;;;3.00;100.00;99449.56;5079962;28;20266;-75
2023/01/19 10:30:47;;;;;;;18.75;11.32;;;;;;;2.99;100.00;99448.72;5080441;28;20218;-75
2023/01/19 10:33:14;;;;;;;16.95;11.45;;;;;;;3.11;100.00;99461.63;5078221;28;20293;-75
2023/01/19 10:35:41;;;;;;;18.30;10.75;;;;;;;3.19;100.00;99456.09;5077792;28;20199;-74
2023/01/19 10:38:14;;;;;;;17.33;12.07;;;;;;;3.07;100.00;99451.13;5077823;28;20291;-76
2023/01/19 10:40:49;;;;;;;15.93;11.57;;;;;;;3.16;100.00;99460.63;5081281;28;20234;-76
2023/01/19 10:43:36;;;;;;;18.67;12.10;;;;;;;2.86;100.00;99456.16;5062580;28;20692;-74
2023/01/19 10:46:07;;;;;;;20.30;11.75;;;;;;;2.93;100.00;99449.75;5078941;28;20234;-76
2023/01/19 10:48:40;;;;;;;16.13;10.35;;;;;;;2.71;100.00;99452.19;5077773;28;20368;-75
2023/01/19 10:51:09;;;;;;;18.30;11.38;;;;;;;2.80;100.00;99459.00;5080707;28;20198;-76
2023/01/19 10:53:36;;;;;;;19.13;11.13;;;;;;;2.77;100.00;99450.25;5091111;28;20222;-75
2023/01/19 10:56:12;;;;;;;16.58;11.98;;;;;;;2.81;100.00;99452.78;5093965;28;20209;-75
2023/01/19 10:58:39;;;;;;;16.85;11.43;;;;;;;2.77;100.00;99458.22;5069893;28;20676;-76
2023/01/19 11:01:16;;;;;;;15.73;11.27;;;;;;;2.78;100.00;99454.63;5077033;28;20207;-75
2023/01/19 11:03:43;;;;;;;15.90;11.23;;;;;;;2.66;100.00;99451.41;5076246;28;20611;-74
2023/01/19 11:06:22;;;;;;;15.65;11.70;;;;;;;2.68;100.00;99452.25;5083336;28;20218;-75
2023/01/19 11:08:50;;;;;;;18.45;10.80;;;;;;;2.61;100.00;99460.44;5086781;28;20703;-74
2023/01/19 11:11:18;;;;;;;20.67;11.48;;;;;;;2.67;100.00;99463.81;5083039;28;20204;-75
2023/01/19 11:13:45;;;;;;;13.77;9.93;;;;;;;2.68;100.00;99459.34;5082490;28;20274;-74
2023/01/19 11:16:26;;;;;;;17.27;12.48;;;;;;;2.63;100.00;99475.44;5080325;28;20244;-75
2023/01/19 11:18:55;;;;;;;17.15;9.25;;;;;;;2.70;100.00;99462.84;5075651;28;20237;-76
2023/01/19 11:21:24;;;;;;;15.65;10.15;;;;;;;2.75;100.00;99465.38;5076441;28;20212;-76
2023/01/19 11:23:54;;;;;;;14.73;9.70;;;;;;;2.80;100.00;99464.31;5075900;28;20234;-77
2023/01/19 11:26:27;;;;;;;15.57;10.48;;;;;;;2.61;100.00;99469.28;5110420;22;20258;-77
2023/01/19 11:28:56;;;;;;;16.40;10.18;;;;;;;2.66;100.00;99467.38;5090007;28;20224;-78
2023/01/19 11:31:33;;;;;;;15.20;9.75;;;;;;;2.58;100.00;99466.72;5082165;28;20203;-75